createdAt,value
2022-08-20T00:00:27.910Z,22.42
2022-08-20T00:03:13.495Z,22.32
2022-08-20T00:06:09.917Z,22.27
2022-08-20T00:08:57.871Z,22.28
2022-08-20T00:11:44.852Z,22.24
2022-08-20T00:14:31.902Z,22.17
2022-08-20T00:17:14.387Z,22.16
2022-08-20T00:20:00.864Z,22.15
2022-08-20T00:22:41.311Z,22.07
2022-08-20T00:25:28.887Z,22.06
2022-08-20T00:28:23.857Z,22.03
2022-08-20T00:31:12.881Z,22.00
2022-08-20T00:33:54.010Z,21.98
2022-08-20T00:36:40.874Z,21.99
2022-08-20T00:39:27.871Z,21.96
2022-08-20T00:42:14.862Z,21.95
2022-08-20T00:45:01.825Z,21.93
2022-08-20T00:47:51.167Z,21.97
2022-08-20T00:50:40.967Z,21.96
2022-08-20T00:53:29.859Z,21.94
2022-08-20T00:56:18.815Z,21.96
2022-08-20T00:59:07.801Z,21.92
2022-08-20T01:01:55.107Z,21.96
2022-08-20T01:04:37.169Z,21.96
2022-08-20T01:07:26.802Z,21.92
2022-08-20T01:10:26.269Z,21.97
2022-08-20T01:13:16.819Z,22.09
2022-08-20T01:16:05.825Z,22.09
2022-08-20T01:18:54.822Z,22.08
2022-08-20T01:21:46.861Z,22.14
2022-08-20T01:24:40.837Z,22.12
2022-08-20T01:27:35.775Z,22.09
2022-08-20T01:30:33.787Z,22.11
2022-08-20T01:33:20.790Z,22.09
2022-08-20T01:36:01.720Z,21.91
2022-08-20T01:38:53.199Z,21.91
2022-08-20T01:42:00.846Z,21.88
2022-08-20T01:44:51.807Z,21.88
2022-08-20T01:47:33.671Z,21.81
2022-08-20T01:50:39.769Z,21.82
2022-08-20T01:53:40.781Z,21.89
2022-08-20T01:56:30.777Z,21.88
2022-08-20T01:59:18.787Z,21.86
2022-08-20T02:02:00.382Z,21.72
2022-08-20T02:04:47.762Z,21.70
2022-08-20T02:07:36.779Z,21.67
2022-08-20T02:10:24.777Z,21.66
2022-08-20T02:13:09.714Z,21.69
2022-08-20T02:15:56.754Z,21.63
2022-08-20T02:18:44.715Z,21.63
2022-08-20T02:21:34.781Z,21.63
2022-08-20T02:24:21.733Z,21.64
2022-08-20T02:27:08.761Z,21.67
2022-08-20T02:30:03.716Z,21.64
2022-08-20T02:32:51.727Z,21.71
2022-08-20T02:35:43.760Z,21.63
2022-08-20T02:38:30.747Z,21.60
2022-08-20T02:41:17.756Z,21.53
2022-08-20T02:43:58.427Z,21.55
2022-08-20T02:46:45.752Z,21.49
2022-08-20T02:49:26.155Z,21.48
2022-08-20T02:52:12.719Z,21.47
2022-08-20T02:54:59.719Z,21.45
2022-08-20T02:57:46.718Z,21.40
2022-08-20T03:00:38.394Z,21.39
2022-08-20T03:03:29.698Z,21.37
2022-08-20T03:26:08.713Z,20.91
2022-08-20T03:28:49.390Z,21.07
2022-08-20T03:31:36.722Z,21.24
2022-08-20T03:34:23.832Z,21.33
2022-08-20T03:37:03.687Z,21.36
2022-08-20T03:39:50.862Z,21.42
2022-08-20T03:42:30.704Z,21.44
2022-08-20T03:45:16.058Z,21.52
2022-08-20T03:48:08.694Z,21.60
2022-08-20T03:50:57.681Z,21.62
2022-08-20T03:53:37.835Z,21.61
2022-08-20T03:56:24.698Z,21.71
2022-08-20T03:59:04.755Z,21.85
2022-08-20T04:01:51.714Z,21.94
2022-08-20T04:04:31.791Z,22.08
2022-08-20T04:07:21.684Z,22.35
2022-08-20T04:10:10.673Z,22.64
2022-08-20T04:12:53.152Z,22.95
2022-08-20T04:15:39.653Z,23.07
2022-08-20T04:18:27.661Z,23.41
2022-08-20T04:21:07.788Z,23.47
2022-08-20T04:24:01.686Z,23.83
2022-08-20T04:26:42.486Z,24.25
2022-08-20T04:29:32.471Z,24.45
2022-08-20T04:32:21.338Z,24.64
2022-08-20T04:35:01.666Z,24.81
2022-08-20T04:37:49.684Z,25.31
2022-08-20T04:40:48.680Z,25.53
2022-08-20T04:43:43.631Z,25.59
2022-08-20T04:46:25.666Z,25.94
2022-08-20T04:49:13.641Z,26.32
2022-08-20T04:51:54.761Z,26.63
2022-08-20T04:54:42.637Z,26.95
2022-08-20T04:57:22.624Z,27.17
2022-08-20T05:00:02.733Z,27.39
2022-08-20T05:02:50.634Z,27.32
2022-08-20T05:05:31.015Z,27.84
2022-08-20T05:08:20.102Z,28.33
2022-08-20T05:11:32.619Z,29.17
2022-08-20T05:14:09.787Z,29.69
2022-08-20T05:16:50.853Z,30.61
2022-08-20T05:19:39.609Z,30.85
2022-08-20T05:22:26.602Z,31.33
2022-08-20T05:25:17.573Z,31.94
2022-08-20T05:28:10.617Z,32.37
2022-08-20T05:30:52.740Z,32.67
2022-08-20T05:33:40.615Z,33.35
2022-08-20T05:36:21.737Z,33.98
2022-08-20T05:39:08.594Z,34.07
2022-08-20T05:41:51.298Z,34.61
2022-08-20T05:44:38.607Z,34.73
2022-08-20T05:47:19.014Z,35.08
2022-08-20T05:50:08.548Z,35.93
2022-08-20T05:52:49.037Z,36.14
2022-08-20T05:55:35.553Z,36.38
2022-08-20T05:58:22.760Z,36.94
2022-08-20T06:01:09.548Z,36.93
2022-08-20T06:04:15.569Z,36.62
2022-08-20T06:07:02.548Z,37.51
2022-08-20T06:09:44.534Z,38.57
2022-08-20T06:12:31.577Z,40.00
2022-08-20T06:15:19.532Z,40.38
2022-08-20T06:18:13.013Z,40.91
2022-08-20T06:21:07.004Z,41.25
2022-08-20T06:23:57.436Z,39.51
2022-08-20T06:26:53.534Z,38.00
2022-08-20T06:29:34.499Z,37.34
2022-08-20T06:32:31.711Z,36.53
2022-08-20T06:35:19.413Z,36.41
2022-08-20T06:38:07.536Z,37.52
2022-08-20T06:40:54.520Z,38.61
2022-08-20T06:43:34.943Z,34.55
2022-08-20T06:46:21.523Z,33.77
2022-08-20T06:49:10.544Z,32.49
2022-08-20T06:51:57.487Z,33.07
2022-08-20T06:54:44.502Z,33.36
2022-08-20T06:57:24.938Z,33.46
2022-08-20T07:00:20.498Z,33.66
2022-08-20T07:03:01.248Z,33.82
2022-08-20T07:05:51.499Z,34.15
2022-08-20T07:08:31.598Z,34.20
2022-08-20T07:11:18.514Z,34.39
2022-08-20T07:13:58.824Z,34.28
2022-08-20T07:16:45.520Z,34.33
2022-08-20T07:19:25.803Z,33.76
2022-08-20T07:22:12.481Z,33.59
2022-08-20T07:24:52.678Z,34.19
2022-08-20T07:27:40.478Z,33.34
2022-08-20T07:30:56.653Z,33.15
2022-08-20T07:33:46.496Z,33.54
2022-08-20T07:36:30.591Z,33.41
2022-08-20T07:39:17.499Z,33.81
2022-08-20T07:42:03.682Z,34.23
2022-08-20T07:44:50.493Z,34.08
2022-08-20T07:47:30.645Z,33.96
2022-08-20T07:50:20.437Z,34.07
2022-08-20T07:53:01.334Z,33.58
2022-08-20T07:55:57.135Z,34.02
2022-08-20T07:58:40.830Z,33.16
2022-08-20T08:01:32.466Z,32.94
2022-08-20T08:04:19.415Z,31.84
2022-08-20T08:07:07.430Z,32.03
2022-08-20T08:09:54.462Z,31.88
2022-08-20T08:12:41.851Z,32.57
2022-08-20T08:15:39.444Z,31.91
2022-08-20T08:18:32.440Z,31.95
2022-08-20T08:21:16.023Z,31.95
2022-08-20T08:24:02.431Z,31.80
2022-08-20T08:26:53.126Z,32.37
2022-08-20T08:29:32.400Z,31.70
2022-08-20T08:32:19.400Z,31.84
2022-08-20T08:35:06.440Z,32.19
2022-08-20T08:37:46.812Z,32.37
2022-08-20T08:40:35.413Z,31.91
2022-08-20T08:43:17.294Z,31.68
2022-08-20T08:46:13.401Z,31.68
2022-08-20T08:49:04.438Z,32.16
2022-08-20T08:51:51.564Z,32.29
2022-08-20T08:54:40.393Z,32.60
2022-08-20T08:57:27.379Z,32.25
2022-08-20T09:00:14.238Z,32.12
2022-08-20T09:03:21.362Z,31.53
2022-08-20T09:06:03.121Z,30.82
2022-08-20T09:08:55.393Z,31.01
2022-08-20T09:11:50.081Z,31.21
2022-08-20T09:14:37.390Z,31.62
2022-08-20T09:17:27.400Z,31.92
2022-08-20T09:20:16.454Z,31.69
2022-08-20T09:23:03.359Z,31.99
2022-08-20T09:25:57.374Z,31.42
2022-08-20T09:28:38.026Z,31.93
2022-08-20T09:31:25.375Z,32.13
2022-08-20T09:34:06.330Z,32.20
2022-08-20T09:36:53.358Z,31.97
2022-08-20T09:39:33.844Z,31.86
2022-08-20T09:42:41.540Z,30.99
2022-08-20T09:45:28.366Z,30.86
2022-08-20T09:48:16.351Z,32.13
2022-08-20T09:51:04.338Z,32.14
2022-08-20T09:53:44.535Z,32.41
2022-08-20T09:56:31.359Z,31.40
2022-08-20T09:59:18.357Z,31.33
2022-08-20T10:02:05.417Z,31.41
2022-08-20T10:04:45.425Z,31.55
2022-08-20T10:07:33.317Z,31.29
2022-08-20T10:10:16.488Z,31.65
2022-08-20T10:13:03.334Z,31.93
2022-08-20T10:15:50.362Z,31.92
2022-08-20T10:18:30.795Z,32.01
2022-08-20T10:21:17.338Z,31.68
2022-08-20T10:24:05.310Z,31.47
2022-08-20T10:26:52.429Z,31.50
2022-08-20T10:29:33.306Z,32.06
2022-08-20T10:32:16.253Z,31.95
2022-08-20T10:35:03.301Z,31.81
2022-08-20T10:37:50.465Z,31.86
2022-08-20T10:40:30.317Z,31.75
2022-08-20T10:43:17.595Z,32.02
2022-08-20T10:45:58.491Z,31.52
2022-08-20T10:48:45.647Z,31.18
2022-08-20T10:51:32.786Z,30.89
2022-08-20T10:54:20.306Z,31.58
2022-08-20T10:57:00.419Z,31.91
2022-08-20T10:59:50.304Z,31.82
2022-08-20T11:02:31.437Z,30.92
2022-08-20T11:05:18.305Z,30.22
2022-08-20T11:07:59.915Z,31.04
2022-08-20T11:10:47.263Z,30.70
2022-08-20T11:13:34.267Z,30.38
2022-08-20T11:16:21.460Z,30.96
2022-08-20T11:19:02.290Z,31.11
2022-08-20T11:21:49.242Z,30.96
2022-08-20T11:24:36.271Z,28.95
2022-08-20T11:27:35.009Z,27.93
2022-08-20T11:30:28.276Z,27.25
2022-08-20T11:33:15.264Z,27.17
2022-08-20T11:36:02.200Z,27.49
2022-08-20T11:38:42.919Z,27.90
2022-08-20T11:41:29.253Z,27.43
2022-08-20T11:44:21.112Z,27.66
2022-08-20T11:47:10.246Z,27.89
2022-08-20T11:50:02.281Z,27.46
2022-08-20T11:52:49.243Z,27.51
2022-08-20T11:55:36.232Z,27.61
2022-08-20T11:58:16.373Z,27.25
2022-08-20T12:01:03.178Z,26.96
2022-08-20T12:03:50.226Z,27.35
2022-08-20T12:06:31.412Z,27.22
2022-08-20T12:09:20.761Z,27.44
2022-08-20T12:12:04.045Z,27.24
2022-08-20T12:14:51.205Z,27.02
2022-08-20T12:17:32.842Z,27.16
2022-08-20T12:20:24.203Z,27.22
2022-08-20T12:23:04.890Z,27.41
2022-08-20T12:25:51.209Z,27.77
2022-08-20T12:28:32.435Z,28.13
2022-08-20T12:31:19.177Z,27.80
2022-08-20T12:33:59.597Z,27.58
2022-08-20T12:36:46.193Z,27.52
2022-08-20T12:39:26.595Z,27.15
2022-08-20T12:42:14.214Z,27.41
2022-08-20T12:44:54.950Z,27.49
2022-08-20T12:47:47.238Z,27.35
2022-08-20T12:50:31.310Z,27.52
2022-08-20T12:53:19.150Z,27.71
2022-08-20T12:55:59.794Z,27.62
2022-08-20T12:58:46.197Z,27.66
2022-08-20T13:01:26.614Z,27.13
2022-08-20T13:04:13.155Z,27.27
2022-08-20T13:06:53.543Z,27.17
2022-08-20T13:09:42.205Z,26.91
2022-08-20T13:12:22.550Z,27.04
2022-08-20T13:15:09.159Z,27.27
2022-08-20T13:18:04.179Z,27.28
2022-08-20T13:20:44.322Z,27.55
2022-08-20T13:23:31.114Z,27.16
2022-08-20T13:26:25.105Z,26.87
2022-08-20T13:29:05.530Z,26.87
2022-08-20T13:31:52.137Z,26.77
2022-08-20T13:34:39.110Z,26.78
2022-08-20T13:37:30.148Z,26.78
2022-08-20T13:40:11.843Z,26.57
2022-08-20T13:43:01.247Z,26.63
2022-08-20T13:45:44.572Z,26.72
2022-08-20T13:48:31.155Z,26.87
2022-08-20T13:51:19.059Z,26.90
2022-08-20T13:53:59.129Z,27.05
2022-08-20T13:56:46.121Z,27.16
2022-08-20T13:59:26.321Z,26.95
2022-08-20T14:02:15.117Z,27.14
2022-08-20T14:04:56.269Z,27.11
2022-08-20T14:07:43.104Z,26.84
2022-08-20T14:10:32.648Z,26.87
2022-08-20T14:13:19.109Z,26.83
2022-08-20T14:15:59.259Z,26.58
2022-08-20T14:18:47.997Z,26.45
2022-08-20T14:21:32.191Z,26.66
2022-08-20T14:24:19.076Z,26.76
2022-08-20T14:27:13.050Z,26.51
2022-08-20T14:30:00.025Z,26.50
2022-08-20T14:32:40.209Z,26.47
2022-08-20T14:35:28.047Z,26.63
2022-08-20T14:38:15.070Z,26.62
2022-08-20T14:41:02.187Z,26.69
2022-08-20T14:43:42.062Z,26.73
2022-08-20T14:46:29.098Z,26.70
2022-08-20T14:49:11.182Z,26.84
2022-08-20T14:51:58.082Z,26.80
2022-08-20T14:54:38.238Z,26.63
2022-08-20T14:57:26.055Z,26.69
2022-08-20T15:00:08.426Z,26.69
2022-08-20T15:02:55.175Z,26.59
2022-08-20T15:05:35.165Z,26.74
2022-08-20T15:08:28.412Z,26.73
2022-08-20T15:28:12.074Z,25.95
2022-08-20T15:30:52.553Z,26.02
2022-08-20T15:33:39.018Z,25.97
2022-08-20T15:36:26.024Z,26.03
2022-08-20T15:39:13.062Z,25.94
2022-08-20T15:42:00.011Z,26.00
2022-08-20T15:44:49.095Z,26.01
2022-08-20T15:47:56.059Z,26.14
2022-08-20T15:51:38.038Z,26.30
2022-08-20T15:54:30.030Z,26.30
2022-08-20T15:57:17.460Z,26.26
2022-08-20T16:00:20.061Z,26.24
2022-08-20T16:03:12.444Z,26.22
2022-08-20T16:06:15.041Z,26.14
2022-08-20T16:09:11.030Z,25.96
2022-08-20T16:12:08.692Z,26.05
2022-08-20T16:15:00.000Z,25.99
2022-08-20T16:17:44.008Z,26.01
2022-08-20T16:20:40.996Z,25.98
2022-08-20T16:23:28.088Z,25.85
2022-08-20T16:26:53.008Z,25.88
2022-08-20T16:29:35.993Z,25.88
2022-08-20T16:32:30.999Z,25.77
2022-08-20T16:35:30.107Z,25.67
2022-08-20T16:38:32.023Z,25.62
2022-08-20T16:41:27.097Z,25.61
2022-08-20T16:44:16.016Z,25.52
2022-08-20T16:47:14.037Z,25.49
2022-08-20T16:50:08.096Z,25.47
2022-08-20T16:52:58.150Z,25.48
2022-08-20T16:55:39.141Z,25.44
2022-08-20T16:58:25.970Z,25.46
2022-08-20T17:01:21.171Z,25.39
2022-08-20T17:04:07.941Z,25.35
2022-08-20T17:07:00.960Z,25.34
2022-08-20T17:09:49.986Z,25.29
2022-08-20T17:12:34.094Z,25.35
2022-08-20T17:15:36.987Z,25.34
2022-08-20T17:18:27.571Z,25.21
2022-08-20T17:21:29.983Z,25.24
2022-08-20T17:24:16.748Z,25.30
2022-08-20T17:27:10.317Z,25.30
2022-08-20T17:30:06.972Z,25.24
2022-08-20T17:33:00.890Z,25.27
2022-08-20T17:35:55.955Z,25.12
2022-08-20T17:39:00.055Z,25.09
2022-08-20T17:41:41.937Z,25.01
2022-08-20T17:44:36.946Z,25.07
2022-08-20T17:47:28.931Z,25.07
2022-08-20T17:50:18.763Z,25.11
2022-08-20T17:53:09.946Z,25.07
2022-08-20T17:55:54.706Z,25.03
2022-08-20T17:59:23.903Z,25.10
2022-08-20T18:02:23.911Z,25.07
2022-08-20T18:05:11.899Z,25.05
2022-08-20T18:08:04.369Z,25.08
2022-08-20T18:11:05.904Z,25.03
2022-08-20T18:14:24.890Z,25.09
2022-08-20T18:17:46.907Z,25.16
2022-08-20T18:20:40.896Z,25.09
2022-08-20T18:23:21.212Z,25.12
2022-08-20T18:26:16.926Z,25.22
2022-08-20T18:29:09.055Z,25.26
2022-08-20T18:32:07.884Z,25.31
2022-08-20T18:34:54.892Z,25.31
2022-08-20T18:37:43.846Z,25.28
2022-08-20T18:40:31.274Z,25.27
2022-08-20T18:43:27.877Z,25.23
2022-08-20T18:46:19.013Z,25.23
2022-08-20T18:49:09.872Z,25.26
2022-08-20T18:51:51.233Z,25.18
2022-08-20T18:54:43.868Z,25.16
2022-08-20T18:57:26.938Z,25.18
2022-08-20T19:00:30.653Z,25.11
2022-08-20T19:03:23.917Z,25.06
2022-08-20T19:06:22.050Z,25.03
2022-08-20T19:09:31.866Z,24.87
2022-08-20T19:12:39.971Z,24.95
2022-08-20T19:15:31.847Z,24.93
2022-08-20T19:18:32.847Z,24.88
2022-08-20T19:21:22.825Z,24.88
2022-08-20T19:24:06.234Z,24.81
2022-08-20T19:27:02.862Z,24.84
2022-08-20T19:30:02.997Z,24.86
2022-08-20T19:32:59.059Z,24.86
2022-08-20T19:35:38.931Z,24.89
2022-08-20T19:38:25.850Z,24.86
2022-08-20T19:41:11.584Z,24.83
2022-08-20T19:44:02.789Z,24.85
2022-08-20T19:46:55.833Z,24.95
2022-08-20T19:49:45.361Z,24.81
2022-08-20T19:52:51.804Z,24.78
2022-08-20T19:55:41.785Z,24.77
2022-08-20T19:58:27.220Z,24.84
2022-08-20T20:01:26.830Z,24.97
2022-08-20T20:04:09.933Z,24.88
2022-08-20T20:06:56.810Z,24.87
2022-08-20T20:09:36.905Z,24.86
2022-08-20T20:12:23.783Z,24.88
2022-08-20T20:15:10.771Z,24.98
2022-08-20T20:17:53.305Z,24.95
2022-08-20T20:20:55.939Z,24.93
2022-08-20T20:23:46.671Z,24.91
2022-08-20T20:26:33.806Z,24.87
2022-08-20T20:29:33.786Z,24.88
2022-08-20T20:32:26.937Z,24.90
2022-08-20T20:35:13.735Z,24.78
2022-08-20T20:38:14.773Z,24.81
2022-08-20T20:41:04.740Z,24.79
2022-08-20T20:43:48.948Z,24.69
2022-08-20T20:46:36.765Z,24.66
2022-08-20T20:49:18.930Z,24.51
2022-08-20T20:52:15.031Z,24.58
2022-08-20T20:55:01.733Z,24.53
2022-08-20T20:57:42.259Z,24.54
2022-08-20T21:00:30.740Z,24.51
2022-08-20T21:03:11.121Z,24.46
2022-08-20T21:05:57.771Z,24.47
2022-08-20T21:08:38.297Z,24.44
2022-08-20T21:11:25.738Z,24.40
2022-08-20T21:14:12.724Z,24.32
2022-08-20T21:16:52.881Z,24.35
2022-08-20T21:19:44.926Z,24.30
2022-08-20T21:22:33.753Z,24.32
2022-08-20T21:25:14.751Z,24.38
2022-08-20T21:28:04.756Z,24.35
2022-08-20T21:30:51.737Z,24.34
2022-08-20T21:33:38.839Z,24.28
2022-08-20T21:36:25.713Z,24.25
2022-08-20T21:39:05.837Z,24.28
2022-08-20T21:41:52.730Z,24.27
2022-08-20T21:44:49.407Z,24.24
2022-08-20T21:47:30.137Z,24.23
2022-08-20T21:50:18.619Z,24.17
2022-08-20T21:53:12.309Z,24.12
2022-08-20T21:55:52.824Z,24.21
2022-08-20T21:58:39.686Z,24.11
2022-08-20T22:01:20.849Z,24.10
2022-08-20T22:04:07.673Z,24.08
2022-08-20T22:06:47.803Z,24.14
2022-08-20T22:09:34.666Z,24.12
2022-08-20T22:12:29.837Z,24.09
2022-08-20T22:15:16.681Z,24.14
2022-08-20T22:17:56.769Z,24.10
2022-08-20T22:20:45.672Z,24.18
2022-08-20T22:23:25.799Z,24.15
2022-08-20T22:26:13.642Z,24.10
2022-08-20T22:29:07.682Z,24.09
2022-08-20T22:31:48.425Z,24.13
2022-08-20T22:34:35.673Z,24.16
2022-08-20T22:37:22.641Z,24.16
2022-08-20T22:40:02.855Z,24.12
2022-08-20T22:42:49.637Z,23.97
2022-08-20T22:45:36.655Z,23.99
2022-08-20T22:48:26.647Z,24.05
2022-08-20T22:51:07.734Z,23.82
2022-08-20T22:53:56.620Z,23.93
2022-08-20T22:56:43.593Z,23.95
2022-08-20T22:59:31.625Z,23.93
2022-08-20T23:02:19.807Z,23.96
2022-08-20T23:05:06.572Z,23.95
2022-08-20T23:07:50.713Z,23.86
2022-08-20T23:10:41.613Z,23.76
2022-08-20T23:13:28.617Z,23.80
2022-08-20T23:16:15.597Z,23.78
2022-08-20T23:18:55.725Z,23.78
2022-08-20T23:21:42.596Z,23.80
2022-08-20T23:24:29.571Z,23.74
2022-08-20T23:27:12.592Z,23.68
2022-08-20T23:29:59.577Z,23.59
2022-08-20T23:32:39.772Z,23.66
2022-08-20T23:35:32.175Z,23.63
2022-08-20T23:38:20.595Z,23.61
2022-08-20T23:41:07.595Z,23.57
2022-08-20T23:43:47.689Z,23.47
2022-08-20T23:46:40.551Z,23.51
2022-08-20T23:49:27.557Z,23.37
2022-08-20T23:52:07.962Z,23.28
2022-08-20T23:54:54.564Z,23.19
2022-08-20T23:57:35.043Z,23.16
